Latest Weather Observations for Coffs Harbour Airport

IDN60801

Issued at 10:32 am EST Monday 16 September 2019 (issued every 10 minutes, with the page automatically refreshed every 10 minutes)

About weather observations | Map of weather stations | Latest weather observations for NSW | Other Formats
Station Details ID: 059151 Name: COFFS HARBOUR AIRPORT Lat: -30.32 Lon: 153.12 Height: 3.5 m
Data from the previous 72 hours. | See also: Recent months at Coffs Harbour Airport
Date/Time
EST
Temp
°C
App
Temp
°C
Dew
Point
°C
Rel
Hum
%
Delta-T
°C
Wind Press
QNH
hPa
Press
MSL
hPa
Rain since
9am
mm
Dir  Spd
km/h
Gust
km/h
Spd
kts
Gust
kts
16/10:30am 22.1 20.3 12.1 53 5.6 SSE 13 15 7 8 1017.8 1017.8 0.0
16/10:00am 21.4 19.3 11.1 52 5.7 SSE 13 15 7 8 1018.2 1018.2 0.0
16/09:30am 25.2 22.2 5.9 29 9.9 WNW 11 17 6 9 1018.4 1018.4 0.0
16/09:00am 23.2 19.7 5.6 32 8.8 NW 13 17 7 9 1018.7 1018.7 0.0
16/08:30am 21.3 18.3 7.5 41 7.1 NW 13 17 7 9 1019.0 1019.0 0.0
16/08:00am 17.8 16.8 10.4 62 3.9 SW 6 7 3 4 1019.0 1019.0 0.0
16/07:30am 16.7 14.3 8.7 59 4.1 NW 11 17 6 9 1019.3 1019.3 0.0
16/07:00am 11.8 10.5 10.0 89 0.9 ENE 7 9 4 5 1019.2 1019.2 0.0
16/06:30am 9.0 8.4 7.5 90 0.7 CALM 0 6 0 3 1019.2 1019.2 0.0
16/06:00am 9.4 7.5 7.7 89 0.8 WSW 7 9 4 5 1019.1 1019.1 0.0
16/05:30am 10.3 7.9 6.8 79 1.6 W 9 13 5 7 1019.1 1019.1 0.0
16/05:03am 10.4 8.8 7.8 84 1.3 W 6 13 3 7 1019.1 1019.1 0.0
16/05:00am 10.9 9.5 8.8 87 1.0 WSW 6 13 3 7 1019.1 1019.1 0.0
16/04:47am 10.2 8.5 7.4 83 1.3 NW 6 9 3 5 1019.1 1019.1 0.0
16/04:30am 11.7 9.6 8.2 79 1.7 N 9 11 5 6 1019.1 1019.1 0.0
16/04:00am 13.9 12.8 10.5 80 1.8 NW 7 11 4 6 1019.1 1019.1 0.0
16/03:47am 13.0 11.5 10.7 86 1.2 NNW 9 15 5 8 1019.1 1019.1 0.0
16/03:30am 12.0 10.5 10.6 91 0.7 N 9 11 5 6 1019.1 1019.1 0.0
16/03:00am 10.8 9.5 9.1 89 0.8 NE 6 7 3 4 1019.3 1019.3 0.0
16/02:30am 10.8 10.4 8.2 84 1.3 CALM 0 9 0 5 1019.5 1019.5 0.0
16/02:00am 12.6 12.6 9.8 83 1.4 CALM 0 0 0 0 1019.9 1019.9 0.0
16/01:30am 13.0 11.8 10.4 84 1.3 NE 7 11 4 6 1020.4 1020.4 0.0
16/01:00am 13.9 12.6 11.1 83 1.5 N 9 11 5 6 1020.7 1020.7 0.0
16/12:30am 13.7 11.2 11.0 84 1.4 NNW 15 17 8 9 1020.9 1020.9 0.0
16/12:00am 13.2 10.6 10.6 84 1.3 N 15 19 8 10 1021.3 1021.3 0.0
 
Date/Time
EST
Temp
°C
App
Temp
°C
Dew
Point
°C
Rel
Hum
%
Delta-T
°C
Wind Press
QNH
hPa
Press
MSL
hPa
Rain since
9am
mm
Dir  Spd
km/h
Gust
km/h
Spd
kts
Gust
kts
15/11:30pm 14.4 14.2 10.4 77 2.1 N 2 6 1 3 1021.7 1021.7 0.0
15/11:00pm 15.8 13.5 10.6 71 2.7 WNW 13 15 7 8 1021.9 1021.9 0.0
15/10:30pm 16.7 14.2 11.0 69 3.1 N 15 17 8 9 1022.1 1022.1 0.0
15/10:00pm 16.7 14.8 10.5 67 3.3 N 11 13 6 7 1022.3 1022.3 0.0
15/09:30pm 17.3 14.3 10.7 65 3.5 N 17 19 9 10 1022.5 1022.5 0.0
15/09:00pm 17.2 14.9 10.6 65 3.5 N 13 15 7 8 1022.7 1022.7 0.0
15/08:30pm 17.4 14.1 11.0 66 3.4 N 19 22 10 12 1022.7 1022.7 0.0
15/08:00pm 16.9 14.1 11.2 69 3.1 NNE 17 19 9 10 1022.7 1022.7 0.0
15/07:30pm 17.9 14.3 11.9 68 3.3 NNE 22 28 12 15 1022.5 1022.5 0.0
15/07:00pm 17.6 14.8 12.7 73 2.7 NNE 19 24 10 13 1022.2 1022.2 0.0
15/06:30pm 17.5 14.9 13.2 76 2.4 NNE 19 24 10 13 1021.9 1021.9 0.0
15/06:00pm 18.2 15.5 13.5 74 2.7 NNE 20 28 11 15 1021.6 1021.6 0.0
15/05:30pm 18.5 14.5 14.0 75 2.6 NNE 28 33 15 18 1021.3 1021.3 0.0
15/05:00pm 19.0 14.7 14.3 74 2.7 NNE 30 37 16 20 1021.1 1021.1 0.0
15/04:30pm 19.3 14.8 13.9 71 3.1 NNE 30 39 16 21 1021.0 1021.0 0.0
15/04:00pm 19.7 15.2 13.9 69 3.3 NNE 30 39 16 21 1020.8 1020.8 0.0
15/03:30pm 20.1 15.3 14.0 68 3.5 NNE 32 39 17 21 1020.7 1020.7 0.0
15/03:00pm 20.1 15.9 13.6 66 3.7 NNE 28 39 15 21 1020.9 1020.9 0.0
15/02:30pm 20.7 15.8 13.6 64 4.1 NE 32 39 17 21 1021.1 1021.1 0.0
15/02:00pm 20.5 16.0 13.7 65 3.9 NE 30 39 16 21 1021.2 1021.2 0.0
15/01:30pm 20.7 15.7 13.4 63 4.2 NE 32 39 17 21 1021.5 1021.5 0.0
15/01:00pm 21.3 16.9 14.2 64 4.1 NE 30 35 16 19 1022.0 1022.0 0.0
15/12:30pm 21.6 18.3 14.0 62 4.4 NE 24 32 13 17 1022.5 1022.5 0.0
15/12:00pm 21.3 18.2 13.5 61 4.5 NE 22 30 12 16 1022.9 1022.9 0.0
15/11:40am 21.9 19.0 13.0 57 5.1 ENE 20 28 11 15 1023.1 1023.1 0.0
15/11:30am 22.0 18.9 12.3 54 5.5 ENE 20 30 11 16 1023.2 1023.2 0.0
15/11:00am 21.9 19.6 11.6 52 5.7 NE 15 24 8 13 1023.5 1023.5 0.0
15/10:30am 21.9 19.9 11.6 52 5.7 WNW 13 20 7 11 1023.7 1023.7 0.0
15/10:00am 21.0 18.7 11.9 56 5.1 NW 15 22 8 12 1024.0 1024.0 0.0
15/09:43am 20.7 18.9 12.1 58 4.8 N 13 22 7 12 1024.3 1024.3 0.0
15/09:30am 20.5 19.2 12.5 60 4.5 NNW 11 28 6 15 1024.3 1024.3 0.0
15/09:00am 19.3 17.9 12.3 64 3.9 N 11 17 6 9 1024.6 1024.6 0.0
15/08:55am 19.1 18.0 12.1 64 3.9 N 9 15 5 8 1024.6 1024.6 0.0
15/08:30am 18.2 17.6 12.4 69 3.2 NNW 7 9 4 5 1024.7 1024.7 0.0
15/08:00am 16.7 15.2 11.8 73 2.7 NW 11 13 6 7 1024.7 1024.7 0.0
15/07:30am 14.7 13.2 11.8 83 1.6 NW 11 13 6 7 1024.6 1024.6 0.0
15/07:00am 12.8 11.7 11.9 94 0.5 WNW 9 11 5 6 1024.5 1024.5 0.0
15/06:30am 10.5 8.7 9.4 93 0.5 NNW 9 11 5 6 1024.2 1024.2 0.0
15/06:00am 10.3 8.9 8.9 91 0.7 WNW 6 7 3 4 1024.2 1024.2 0.0
15/05:30am 11.5 11.6 10.1 91 0.7 CALM 0 0 0 0 1024.3 1024.3 0.0
15/05:19am 11.5 11.5 9.8 89 0.9 CALM 0 0 0 0 1024.1 1024.1 0.0
15/05:00am 12.1 11.5 10.3 89 0.9 SW 4 7 2 4 1024.1 1024.1 0.0
15/04:30am 12.8 11.8 11.0 89 0.9 WNW 7 9 4 5 1023.6 1023.6 0.0
15/04:00am 13.4 12.6 11.8 90 0.9 WNW 7 9 4 5 1023.1 1023.1 0.0
15/03:30am 12.9 12.0 11.3 90 0.8 NW 7 7 4 4 1022.8 1022.8 0.0
15/03:00am 13.1 12.2 11.5 90 0.8 NW 7 7 4 4 1022.7 1022.7 0.0
15/02:30am 12.7 11.7 10.9 89 0.9 NW 7 9 4 5 1022.7 1022.7 0.0
15/02:00am 13.5 12.6 11.2 86 1.2 NW 7 11 4 6 1022.9 1022.9 0.0
15/01:30am 14.3 13.6 12.0 86 1.2 NW 7 9 4 5 1023.3 1023.3 0.0
15/01:00am 14.2 14.5 12.2 88 1.1 NW 2 6 1 3 1023.7 1023.7 0.0
15/12:30am 13.5 12.9 11.6 88 1.0 WNW 6 7 3 4 1023.9 1023.9 0.0
15/12:00am 13.6 12.7 11.3 86 1.2 NW 7 9 4 5 1023.9 1023.9 0.0
 
Date/Time
EST
Temp
°C
App
Temp
°C
Dew
Point
°C
Rel
Hum
%
Delta-T
°C
Wind Press
QNH
hPa
Press
MSL
hPa
Rain since
9am
mm
Dir  Spd
km/h
Gust
km/h
Spd
kts
Gust
kts
14/11:30pm 14.5 15.1 11.8 84 1.5 CALM 0 4 0 2 1024.1 1024.1 0.0
14/11:00pm 14.9 14.8 12.2 84 1.5 WNW 4 7 2 4 1024.1 1024.1 0.0
14/10:30pm 14.7 14.1 12.4 86 1.3 WNW 7 11 4 6 1024.3 1024.3 0.0
14/10:00pm 13.5 12.3 10.3 81 1.7 WNW 7 7 4 4 1024.2 1024.2 0.0
14/09:30pm 15.6 14.3 11.4 76 2.3 WNW 9 11 5 6 1024.2 1024.2 0.0
14/09:00pm 16.8 16.1 12.1 74 2.6 SSW 7 11 4 6 1024.2 1024.2 0.0
14/08:30pm 17.6 15.0 12.1 70 3.0 S 17 22 9 12 1024.4 1024.4 0.0
14/08:00pm 17.9 14.9 12.4 70 3.0 S 20 28 11 15 1024.3 1024.3 0.0
14/07:30pm 17.7 14.8 12.4 71 2.9 S 19 28 10 15 1024.2 1024.2 0.0
14/07:00pm 17.8 14.4 12.5 71 2.9 S 22 30 12 16 1023.8 1023.8 0.0
14/06:30pm 17.9 14.6 12.8 72 2.8 S 22 32 12 17 1023.5 1023.5 0.0
14/06:00pm 18.2 14.2 13.1 72 2.9 S 26 33 14 18 1023.1 1023.1 0.0
14/05:30pm 18.4 13.7 13.3 72 2.9 SSE 30 35 16 19 1022.7 1022.7 0.0
14/05:00pm 18.9 14.5 14.0 73 2.8 SSE 30 35 16 19 1022.3 1022.3 0.0
14/04:30pm 19.2 14.4 14.5 74 2.7 SSE 33 41 18 22 1021.9 1021.9 0.0
14/04:00pm 19.4 14.7 14.2 72 3.0 S 32 41 17 22 1021.7 1021.7 0.0
14/03:30pm 20.6 16.0 14.5 68 3.6 S 32 39 17 21 1021.1 1021.1 0.0
14/03:00pm 20.8 15.2 13.3 62 4.3 S 35 46 19 25 1020.3 1020.3 0.0
14/02:30pm 21.2 14.1 11.0 52 5.6 S 39 54 21 29 1019.9 1019.9 0.0
14/02:00pm 21.7 15.2 8.9 44 6.8 S 33 44 18 24 1020.3 1020.3 0.0
14/01:30pm 22.0 16.2 7.8 40 7.4 SSE 28 35 15 19 1020.8 1020.8 0.0
14/01:00pm 22.2 17.6 9.7 45 6.7 SSE 24 32 13 17 1021.0 1021.0 0.0
14/12:30pm 22.1 16.6 9.3 44 6.9 SSE 28 39 15 21 1021.1 1021.1 0.0
14/12:00pm 22.7 18.6 8.0 39 7.7 SSE 19 26 10 14 1020.7 1020.7 0.0
14/11:30am 21.7 18.9 9.9 47 6.4 SSE 15 20 8 11 1020.5 1020.5 0.0
14/11:00am 21.4 18.9 10.9 51 5.8 SE 15 19 8 10 1020.5 1020.5 0.0
14/10:59am 21.2 18.9 11.8 55 5.2 SE 15 19 8 10 1020.5 1020.5 0.0
14/10:30am 21.4 20.5 13.6 61 4.5 SE 11 15 6 8 1020.4 1020.4 0.0
14/10:00am 20.8 19.2 12.8 60 4.5 SE 13 15 7 8 1020.6 1020.6 0.0
14/09:30am 19.8 17.2 10.8 56 4.9 S 15 17 8 9 1020.9 1020.9 0.0
14/09:00am 18.9 16.4 11.2 61 4.2 SSE 15 17 8 9 1021.0 1021.0 0.0
14/08:30am 19.1 18.1 10.4 57 4.7 WSW 6 11 3 6 1020.7 1020.7 0.0
14/08:00am 17.6 16.2 10.9 65 3.6 NW 9 13 5 7 1020.5 1020.5 0.0
14/07:30am 15.3 14.6 11.3 77 2.1 NW 6 9 3 5 1020.4 1020.4 0.0
14/07:00am 12.9 11.9 11.1 89 0.9 WNW 7 9 4 5 1020.3 1020.3 0.0
14/06:30am 11.4 9.9 9.3 87 1.1 NW 7 9 4 5 1020.1 1020.1 0.0
14/06:00am 13.2 10.5 10.4 83 1.4 NNW 15 20 8 11 1020.0 1020.0 0.0
14/05:30am 12.3 10.1 10.7 90 0.8 WNW 13 17 7 9 1019.7 1019.7 0.0
14/05:11am 10.9 8.9 8.8 87 1.0 WSW 9 11 5 6 1019.8 1019.8 0.0
14/05:00am 11.0 9.4 8.6 85 1.2 SW 7 9 4 5 1019.9 1019.9 0.0
14/04:30am 14.0 12.6 10.8 81 1.7 W 9 13 5 7 1019.6 1019.6 0.0
14/04:00am 15.1 13.0 11.1 77 2.1 NW 13 19 7 10 1019.4 1019.4 0.0
14/03:30am 15.1 13.2 11.7 80 1.8 NNW 13 22 7 12 1019.3 1019.3 0.0
14/03:00am 13.9 11.7 10.7 81 1.7 N 13 15 7 8 1019.5 1019.5 0.0
14/02:30am 13.4 10.5 11.1 86 1.2 NW 17 19 9 10 1020.1 1020.1 0.0
14/02:00am 11.7 10.0 9.8 88 1.0 N 9 13 5 7 1020.4 1020.4 0.0
14/01:30am 13.0 11.6 10.9 87 1.1 NNW 9 11 5 6 1021.1 1021.1 0.0
14/01:00am 12.4 12.4 11.0 91 0.7 NNW 2 7 1 4 1021.8 1021.8 0.0
14/12:30am 12.6 11.7 11.3 92 0.7 NW 7 9 4 5 1022.2 1022.2 0.0
14/12:00am 11.9 11.4 10.6 92 0.7 NNW 4 9 2 5 1022.6 1022.6 0.0
 
Date/Time
EST
Temp
°C
App
Temp
°C
Dew
Point
°C
Rel
Hum
%
Delta-T
°C
Wind Press
QNH
hPa
Press
MSL
hPa
Rain since
9am
mm
Dir  Spd
km/h
Gust
km/h
Spd
kts
Gust
kts
13/11:30pm 12.0 11.1 10.7 92 0.7 NW 6 7 3 4 1023.1 1023.1 0.0
13/11:00pm 12.7 11.8 11.4 92 0.7 NW 7 7 4 4 1023.3 1023.3 0.0
13/10:30pm 12.8 12.0 11.2 90 0.8 NW 6 7 3 4 1023.2 1023.2 0.0
13/10:00pm 13.8 13.3 12.0 89 1.0 NNW 6 7 3 4 1023.5 1023.5 0.0
13/09:30pm 13.9 14.5 11.9 88 1.1 CALM 0 0 0 0 1023.4 1023.4 0.0
13/09:00pm 14.3 13.9 12.3 88 1.1 WNW 6 7 3 4 1023.3 1023.3 0.0
13/08:30pm 14.4 15.1 12.3 87 1.1 CALM 0 0 0 0 1023.2 1023.2 0.0
13/08:00pm 15.0 15.8 12.5 85 1.4 CALM 0 0 0 0 1023.0 1023.0 0.0
13/07:30pm 15.2 16.0 12.5 84 1.5 CALM 0 0 0 0 1022.8 1022.8 0.0
13/07:00pm 15.0 13.9 12.0 82 1.6 WNW 9 11 5 6 1022.8 1022.8 0.0
13/06:30pm 16.4 15.4 12.4 77 2.2 SSE 9 11 5 6 1022.3 1022.3 0.0
13/06:00pm 17.9 16.4 13.0 73 2.7 SSE 13 19 7 10 1021.9 1021.9 0.0
13/05:30pm 18.4 16.4 12.8 70 3.1 SSE 15 20 8 11 1021.7 1021.7 0.0
13/05:00pm 19.2 17.4 13.4 69 3.3 S 15 20 8 11 1021.7 1021.7 0.0
13/04:30pm 19.5 17.4 13.7 69 3.3 SSE 17 20 9 11 1021.3 1021.3 0.0
13/04:00pm 20.1 18.0 13.6 66 3.7 SSE 17 22 9 12 1021.4 1021.4 0.0
13/03:30pm 20.4 17.8 13.8 66 3.8 S 20 26 11 14 1021.4 1021.4 0.0
13/03:00pm 20.9 18.5 14.3 66 3.8 S 20 28 11 15 1021.5 1021.5 0.0
13/02:30pm 21.5 19.0 14.2 63 4.3 S 20 28 11 15 1021.5 1021.5 0.0
13/02:00pm 21.6 18.2 14.7 65 4.1 S 26 33 14 18 1021.5 1021.5 0.0
13/01:30pm 21.3 17.3 14.2 64 4.1 S 28 35 15 19 1021.4 1021.4 0.0
13/01:00pm 21.8 17.6 14.7 64 4.2 S 30 37 16 20 1021.4 1021.4 0.0
13/12:30pm 21.6 18.2 15.7 69 3.5 S 28 33 15 18 1021.5 1021.5 0.0
13/12:00pm 22.2 18.8 16.7 71 3.4 S 30 41 16 22 1021.9 1021.9 0.0
13/11:30am 22.4 18.5 15.5 65 4.1 S 30 39 16 21 1021.9 1021.9 0.0
13/11:00am 22.0 16.5 11.7 52 5.8 S 32 41 17 22 1022.0 1022.0 0.0

Other formats

Comma delimited format used in spreadsheet applications
http://www.bom.gov.au/fwo/IDN60801/IDN60801.95729.axf

JavaScript Object Notation format (JSON) in row-major order
http://www.bom.gov.au/fwo/IDN60801/IDN60801.95729.json

Data quality

Most of these data are generated automatically and are frequently updated. Quality checks on data are not normally performed. It is possible for incorrect values to appear. Refer to information at About Latest Weather Observations and please check the disclaimer before using these data.